createdAt,value
2023-01-29T00:02:00.560Z,102658.94
2023-01-29T00:04:29.627Z,102651.09
2023-01-29T00:06:57.325Z,102645.84
2023-01-29T00:09:25.001Z,102644.09
2023-01-29T00:11:52.673Z,102632.72
2023-01-29T00:14:20.694Z,102626.66
2023-01-29T00:16:48.397Z,102626.63
2023-01-29T00:19:16.114Z,102624.00
2023-01-29T00:21:45.152Z,102635.34
2023-01-29T00:24:13.070Z,102630.97
2023-01-29T00:26:42.357Z,102636.22
2023-01-29T00:29:10.038Z,102630.97
2023-01-29T00:31:37.802Z,102635.38
2023-01-29T00:34:05.567Z,102634.47
2023-01-29T00:36:33.240Z,102638.00
2023-01-29T00:39:02.690Z,102641.44
2023-01-29T00:41:48.847Z,102644.06
2023-01-29T00:44:34.101Z,102637.09
2023-01-29T00:47:01.791Z,102641.44
2023-01-29T00:49:30.217Z,102642.31
2023-01-29T00:52:15.596Z,102638.81
2023-01-29T00:54:44.665Z,102646.69
2023-01-29T00:57:12.353Z,102642.31
2023-01-29T00:59:40.018Z,102631.81
2023-01-29T01:02:25.455Z,102636.19
2023-01-29T01:04:53.182Z,102640.59
2023-01-29T01:07:21.023Z,102650.19
2023-01-29T01:10:07.391Z,102647.56
2023-01-29T01:12:35.083Z,102644.06
2023-01-29T01:15:02.758Z,102644.06
2023-01-29T01:17:30.430Z,102643.22
2023-01-29T01:19:58.122Z,102641.44
2023-01-29T01:22:25.817Z,102636.22
2023-01-29T01:24:54.856Z,102637.09
2023-01-29T01:27:22.689Z,102637.97
2023-01-29T01:29:50.364Z,102642.34
2023-01-29T01:32:18.029Z,102631.84
2023-01-29T01:34:45.963Z,102629.19
2023-01-29T01:37:13.679Z,102628.34
2023-01-29T01:39:41.351Z,102626.59
2023-01-29T01:42:13.924Z,102626.56
2023-01-29T01:45:06.426Z,102632.69
2023-01-29T01:47:36.421Z,102618.69
2023-01-29T01:50:08.140Z,102619.59
2023-01-29T01:52:36.411Z,102618.69
2023-01-29T01:55:04.130Z,102627.47
2023-01-29T01:57:33.170Z,102625.72
2023-01-29T02:00:10.073Z,102625.69
2023-01-29T02:02:56.367Z,102630.06
2023-01-29T02:05:41.753Z,102637.91
2023-01-29T02:08:27.007Z,102621.31
2023-01-29T02:10:54.665Z,102619.53
2023-01-29T02:13:23.779Z,102615.19
2023-01-29T02:15:51.507Z,102626.53
2023-01-29T02:18:20.301Z,102618.69
2023-01-29T02:20:50.984Z,102620.44
2023-01-29T02:23:44.665Z,102603.84
2023-01-29T02:26:47.519Z,102600.31
2023-01-29T02:29:26.841Z,102596.81
2023-01-29T02:32:00.199Z,102588.06
2023-01-29T02:34:32.288Z,102576.72
2023-01-29T02:37:02.328Z,102570.59
2023-01-29T02:39:30.911Z,102580.25
2023-01-29T02:42:02.086Z,102562.75
2023-01-29T02:44:33.405Z,102559.25
2023-01-29T02:47:02.409Z,102560.16
2023-01-29T02:49:33.682Z,102547.03
2023-01-29T02:52:03.512Z,102542.63
2023-01-29T02:54:33.910Z,102534.78
2023-01-29T02:57:02.121Z,102534.78
2023-01-29T02:59:34.137Z,102526.06
2023-01-29T03:02:03.607Z,102526.06
2023-01-29T03:04:32.803Z,102525.16
2023-01-29T03:07:02.084Z,102526.03
2023-01-29T03:09:32.733Z,102524.31
2023-01-29T03:12:19.928Z,102525.16
2023-01-29T03:15:07.160Z,102523.44
2023-01-29T03:17:36.803Z,102517.31
2023-01-29T03:20:04.840Z,102508.59
2023-01-29T03:22:32.541Z,102506.84
2023-01-29T03:25:17.630Z,102503.31
2023-01-29T03:28:04.533Z,102512.06
2023-01-29T03:30:51.717Z,102516.44
2023-01-29T03:33:19.975Z,102500.72
2023-01-29T03:35:50.225Z,102512.97
2023-01-29T03:38:17.893Z,102505.09
2023-01-29T03:40:50.218Z,102512.06
2023-01-29T03:43:21.897Z,102512.97
2023-01-29T03:45:57.956Z,102511.19
2023-01-29T03:48:29.322Z,102523.44
2023-01-29T03:50:59.080Z,102512.97
2023-01-29T03:53:29.218Z,102519.06
2023-01-29T03:55:59.624Z,102514.72
2023-01-29T03:58:33.728Z,102520.81
2023-01-29T04:01:03.959Z,102510.34
2023-01-29T04:03:33.958Z,102509.47
2023-01-29T04:06:09.827Z,102512.97
2023-01-29T04:08:41.930Z,102510.34
2023-01-29T04:11:11.754Z,102505.13
2023-01-29T04:13:39.502Z,102511.22
2023-01-29T04:16:10.864Z,102511.22
2023-01-29T04:18:38.541Z,102520.84
2023-01-29T04:21:08.207Z,102518.22
2023-01-29T04:23:35.961Z,102516.50
2023-01-29T04:26:12.375Z,102515.63
2023-01-29T04:28:48.201Z,102506.00
2023-01-29T04:31:17.315Z,102509.50
2023-01-29T04:33:46.237Z,102519.97
2023-01-29T04:36:21.127Z,102509.50
2023-01-29T04:38:58.218Z,102518.19
2023-01-29T04:41:27.220Z,102521.72
2023-01-29T04:44:00.406Z,102520.81
2023-01-29T04:46:32.955Z,102505.97
2023-01-29T04:49:05.276Z,102504.25
2023-01-29T04:51:36.980Z,102492.00
2023-01-29T04:54:08.212Z,102480.66
2023-01-29T04:56:37.158Z,102479.78
2023-01-29T04:59:06.203Z,102466.66
2023-01-29T05:01:35.305Z,102457.06
2023-01-29T05:04:04.124Z,102458.78
2023-01-29T05:06:31.890Z,102475.38
2023-01-29T05:08:59.559Z,102471.91
2023-01-29T05:11:27.236Z,102464.03
2023-01-29T05:13:54.909Z,102462.28
2023-01-29T05:16:23.845Z,102453.53
2023-01-29T05:18:52.975Z,102436.91
2023-01-29T05:21:20.644Z,102444.78
2023-01-29T05:23:59.290Z,102443.94
2023-01-29T05:26:44.871Z,102443.06
2023-01-29T05:29:13.109Z,102450.91
2023-01-29T05:31:40.812Z,102465.81
2023-01-29T05:34:10.280Z,102456.19
2023-01-29T05:36:38.030Z,102471.06
2023-01-29T05:39:05.694Z,102477.22
2023-01-29T05:41:33.436Z,102479.81
2023-01-29T05:44:01.114Z,102472.84
2023-01-29T05:46:28.801Z,102445.78
2023-01-29T05:48:56.511Z,102432.69
2023-01-29T05:51:25.537Z,102437.03
2023-01-29T05:53:53.198Z,102424.81
2023-01-29T05:56:20.898Z,102416.97
2023-01-29T05:58:48.566Z,102405.63
2023-01-29T06:01:17.295Z,102419.56
2023-01-29T06:03:44.976Z,102416.13
2023-01-29T06:06:12.712Z,102408.25
2023-01-29T06:08:41.791Z,102410.88
2023-01-29T06:11:09.956Z,102411.75
2023-01-29T06:13:37.621Z,102411.75
2023-01-29T06:16:06.344Z,102413.50
2023-01-29T06:18:34.050Z,102406.50
2023-01-29T06:21:03.090Z,102403.00
2023-01-29T06:23:30.778Z,102405.63
2023-01-29T06:26:01.966Z,102396.91
2023-01-29T06:28:29.688Z,102397.78
2023-01-29T06:31:08.299Z,102395.16
2023-01-29T06:33:44.114Z,102391.66
2023-01-29T06:36:11.824Z,102397.75
2023-01-29T06:38:39.490Z,102396.00
2023-01-29T06:41:11.953Z,102393.38
2023-01-29T06:43:39.678Z,102392.53
2023-01-29T06:46:07.917Z,102385.50
2023-01-29T06:48:35.601Z,102386.41
2023-01-29T06:51:04.097Z,102382.91
2023-01-29T06:53:31.891Z,102386.41
2023-01-29T06:55:59.558Z,102388.16
2023-01-29T06:58:28.596Z,102378.53
2023-01-29T07:01:03.318Z,102383.78
2023-01-29T07:03:31.027Z,102383.78
2023-01-29T07:05:58.682Z,102382.03
2023-01-29T07:08:26.349Z,102379.41
2023-01-29T07:10:54.005Z,102375.91
2023-01-29T07:13:21.663Z,102384.66
2023-01-29T07:15:50.926Z,102386.41
2023-01-29T07:18:18.591Z,102385.50
2023-01-29T07:20:46.278Z,102386.38
2023-01-29T07:23:14.380Z,102385.53
2023-01-29T07:25:42.135Z,102384.63
2023-01-29T07:28:09.842Z,102385.53
2023-01-29T07:30:37.566Z,102378.53
2023-01-29T07:33:08.091Z,102375.91
2023-01-29T07:35:37.800Z,102389.88
2023-01-29T07:38:05.486Z,102379.41
2023-01-29T07:40:33.182Z,102376.78
2023-01-29T07:43:00.955Z,102377.63
2023-01-29T07:45:28.694Z,102381.16
2023-01-29T07:47:56.512Z,102375.91
2023-01-29T07:50:26.266Z,102363.69
2023-01-29T07:52:55.202Z,102368.03
2023-01-29T07:55:22.972Z,102376.81
2023-01-29T07:57:56.355Z,102373.28
2023-01-29T08:00:24.340Z,102368.03
2023-01-29T08:02:52.000Z,102368.94
2023-01-29T08:05:19.746Z,102356.69
2023-01-29T08:08:05.624Z,102355.84
2023-01-29T08:10:34.276Z,102357.59
2023-01-29T08:13:02.547Z,102368.06
2023-01-29T08:15:30.428Z,102362.81
2023-01-29T08:17:58.620Z,102357.56
2023-01-29T08:20:26.551Z,102339.22
2023-01-29T08:23:01.471Z,102338.34
2023-01-29T08:25:29.523Z,102335.72
2023-01-29T08:27:57.797Z,102333.97
2023-01-29T08:30:25.920Z,102329.63
2023-01-29T08:32:53.610Z,102326.13
2023-01-29T08:35:21.473Z,102320.88
2023-01-29T08:37:54.259Z,102317.38
2023-01-29T08:40:23.326Z,102322.63
2023-01-29T08:42:51.012Z,102319.13
2023-01-29T08:45:18.704Z,102336.59
2023-01-29T08:47:47.242Z,102334.84
2023-01-29T08:50:15.559Z,102331.34
2023-01-29T08:52:43.525Z,102325.25
2023-01-29T08:55:11.267Z,102334.84
2023-01-29T08:57:40.287Z,102328.72
2023-01-29T09:00:09.254Z,102327.84
2023-01-29T09:02:36.985Z,102333.09
2023-01-29T09:05:05.515Z,102337.50
2023-01-29T09:07:33.220Z,102333.09
2023-01-29T09:10:00.909Z,102328.75
2023-01-29T09:12:28.580Z,102330.47
2023-01-29T09:14:57.600Z,102322.63
2023-01-29T09:17:25.342Z,102325.25
2023-01-29T09:19:53.289Z,102323.53
2023-01-29T09:22:21.042Z,102329.63
2023-01-29T09:24:48.709Z,102329.63
2023-01-29T09:27:16.418Z,102325.25
2023-01-29T09:29:44.092Z,102307.78
2023-01-29T09:32:13.117Z,102306.91
2023-01-29T09:34:40.793Z,102301.66
2023-01-29T09:37:08.455Z,102306.91
2023-01-29T09:39:36.115Z,102292.06
2023-01-29T09:42:07.606Z,102292.06
2023-01-29T09:44:47.239Z,102291.19
2023-01-29T09:47:17.853Z,102291.19
2023-01-29T09:49:48.013Z,102288.56
2023-01-29T09:52:17.526Z,102284.19
2023-01-29T09:54:50.703Z,102282.44
2023-01-29T09:57:21.633Z,102290.31
2023-01-29T09:59:49.294Z,102280.66
2023-01-29T10:02:27.200Z,102276.31
2023-01-29T10:05:16.203Z,102277.19
2023-01-29T10:08:04.810Z,102282.44
2023-01-29T10:10:37.418Z,102282.44
2023-01-29T10:13:08.756Z,102278.06
2023-01-29T10:15:43.949Z,102273.69
2023-01-29T10:18:43.995Z,102270.22
2023-01-29T10:21:20.873Z,102257.94
2023-01-29T10:23:49.038Z,102245.72
2023-01-29T10:26:18.479Z,102257.09
2023-01-29T10:28:47.582Z,102250.13
2023-01-29T10:31:16.948Z,102252.72
2023-01-29T10:34:00.706Z,102240.50
2023-01-29T10:36:33.254Z,102236.13
2023-01-29T10:39:00.947Z,102234.38
2023-01-29T10:41:39.246Z,102221.25
2023-01-29T10:44:14.284Z,102230.91
2023-01-29T10:46:50.273Z,102230.88
2023-01-29T10:49:26.394Z,102221.28
2023-01-29T10:52:03.242Z,102209.06
2023-01-29T10:54:41.676Z,102204.69
2023-01-29T10:57:13.327Z,102198.53
2023-01-29T10:59:51.433Z,102189.84
2023-01-29T11:02:21.170Z,102182.81
2023-01-29T11:04:50.238Z,102184.59
2023-01-29T11:07:18.883Z,102177.59
2023-01-29T11:09:49.869Z,102177.59
2023-01-29T11:12:20.957Z,102179.34
2023-01-29T11:14:52.882Z,102184.59
2023-01-29T11:17:21.730Z,102174.09
2023-01-29T11:19:51.980Z,102179.34
2023-01-29T11:22:20.837Z,102163.63
2023-01-29T11:24:48.665Z,102169.75
2023-01-29T11:27:17.226Z,102155.75
2023-01-29T11:29:45.179Z,102161.84
2023-01-29T11:32:14.447Z,102160.13
2023-01-29T11:35:00.003Z,102158.38
2023-01-29T11:37:33.542Z,102158.38
2023-01-29T11:40:01.217Z,102149.63
2023-01-29T11:42:31.678Z,102142.66
2023-01-29T11:44:59.444Z,102142.63
2023-01-29T11:47:28.027Z,102132.16
2023-01-29T11:49:56.439Z,102126.91
2023-01-29T11:52:27.304Z,102122.56
2023-01-29T11:54:56.347Z,102118.19
2023-01-29T11:57:30.922Z,102112.94
2023-01-29T12:00:00.498Z,102106.84
2023-01-29T12:02:38.370Z,102101.59
2023-01-29T12:05:08.160Z,102082.38
2023-01-29T12:07:37.847Z,102088.47
2023-01-29T12:10:06.374Z,102079.75
2023-01-29T12:12:37.821Z,102076.25
2023-01-29T12:15:20.055Z,102077.97
2023-01-29T12:17:59.155Z,102074.50
2023-01-29T12:20:30.065Z,102068.38
2023-01-29T12:23:03.178Z,102067.50
2023-01-29T12:25:41.583Z,102067.50
2023-01-29T12:28:14.872Z,102065.75
2023-01-29T12:30:45.783Z,102067.53
2023-01-29T12:33:15.523Z,102056.16
2023-01-29T12:35:44.561Z,102059.66
2023-01-29T12:38:17.401Z,102046.56
2023-01-29T12:40:47.914Z,102038.69
2023-01-29T12:43:17.670Z,102036.94
2023-01-29T12:45:47.379Z,102037.81
2023-01-29T12:48:15.570Z,102030.81
2023-01-29T12:50:43.250Z,102027.34
2023-01-29T12:53:18.981Z,102021.19
2023-01-29T12:55:47.694Z,102010.72
2023-01-29T12:58:16.747Z,102010.72
2023-01-29T13:00:45.099Z,102006.31
2023-01-29T13:03:18.476Z,102003.69
2023-01-29T13:05:47.247Z,101989.75
2023-01-29T13:08:18.722Z,101986.25
2023-01-29T13:10:47.899Z,101982.78
2023-01-29T13:13:16.974Z,101980.16
2023-01-29T13:15:44.981Z,101976.63
2023-01-29T13:18:30.930Z,101965.31
2023-01-29T13:20:58.652Z,101971.41
2023-01-29T13:23:31.756Z,101960.91
2023-01-29T13:25:59.421Z,101968.78
2023-01-29T13:28:27.735Z,101960.91
2023-01-29T13:31:21.728Z,101953.06
2023-01-29T13:33:53.635Z,101961.78
2023-01-29T13:36:23.657Z,101957.44
2023-01-29T13:38:55.994Z,101953.94
2023-01-29T13:41:32.725Z,101953.06
2023-01-29T13:44:00.411Z,101954.81
2023-01-29T13:46:28.396Z,101943.44
2023-01-29T13:48:58.237Z,101936.47
2023-01-29T13:51:29.258Z,101934.69
2023-01-29T13:53:59.627Z,101932.09
2023-01-29T13:56:47.787Z,101930.34
2023-01-29T13:59:25.039Z,101928.59
2023-01-29T14:02:03.829Z,101923.38
2023-01-29T14:04:32.526Z,101914.63
2023-01-29T14:07:00.330Z,101910.25
2023-01-29T14:10:14.004Z,101905.03
2023-01-29T14:12:47.379Z,101911.16
2023-01-29T14:15:26.141Z,101901.53
2023-01-29T14:18:01.500Z,101905.03
2023-01-29T14:20:45.074Z,101903.28
2023-01-29T14:23:22.371Z,101898.06
2023-01-29T14:25:50.047Z,101896.31
2023-01-29T14:28:22.081Z,101897.16
2023-01-29T14:30:49.931Z,101882.31
2023-01-29T14:33:25.246Z,101882.31
2023-01-29T14:35:52.926Z,101878.84
2023-01-29T14:38:20.630Z,101874.47
2023-01-29T14:40:48.293Z,101864.88
2023-01-29T14:43:20.792Z,101868.38
2023-01-29T14:45:49.069Z,101864.88
2023-01-29T14:48:39.155Z,101866.59
2023-01-29T14:51:09.660Z,101859.63
2023-01-29T14:53:47.001Z,101864.88
2023-01-29T14:56:16.853Z,101849.13
2023-01-29T14:58:47.892Z,101847.38
2023-01-29T15:01:23.206Z,101848.25
2023-01-29T15:03:51.902Z,101847.38
2023-01-29T15:06:22.230Z,101841.28
2023-01-29T15:08:53.574Z,101834.28
2023-01-29T15:11:35.475Z,101824.66
2023-01-29T15:14:23.843Z,101826.41
2023-01-29T15:16:58.683Z,101831.66
2023-01-29T15:19:27.431Z,101822.03
2023-01-29T15:22:09.073Z,101819.44
2023-01-29T15:24:37.163Z,101815.91
2023-01-29T15:27:05.222Z,101808.94
2023-01-29T15:29:34.283Z,101802.81
2023-01-29T15:32:02.041Z,101786.25
2023-01-29T15:34:29.753Z,101781.84
2023-01-29T15:36:57.517Z,101780.13
2023-01-29T15:39:26.997Z,101781.84
2023-01-29T15:42:05.925Z,101777.50
2023-01-29T15:44:34.960Z,101767.03
2023-01-29T15:47:02.689Z,101762.66
2023-01-29T15:49:31.875Z,101760.94
2023-01-29T15:52:00.714Z,101763.56
2023-01-29T15:54:28.422Z,101765.28
2023-01-29T15:56:56.122Z,101752.16
2023-01-29T15:59:24.774Z,101762.66
2023-01-29T16:01:53.876Z,101767.03
2023-01-29T16:04:26.830Z,101753.06
2023-01-29T16:06:54.587Z,101765.28
2023-01-29T16:09:23.566Z,101766.19
2023-01-29T16:11:51.461Z,101765.28
2023-01-29T16:14:21.459Z,101766.19
2023-01-29T16:16:49.392Z,101760.06
2023-01-29T16:19:23.352Z,101768.81
2023-01-29T16:21:54.459Z,101755.69
2023-01-29T16:24:23.284Z,101754.81
2023-01-29T16:26:51.458Z,101740.81
2023-01-29T16:29:22.528Z,101739.09
2023-01-29T16:31:52.029Z,101735.63
2023-01-29T16:34:24.851Z,101734.72
2023-01-29T16:36:53.587Z,101724.25
2023-01-29T16:39:23.061Z,101720.75
2023-01-29T16:42:09.598Z,101719.00
2023-01-29T16:44:37.584Z,101719.00
2023-01-29T16:47:12.677Z,101722.47
2023-01-29T16:49:50.682Z,101711.16
2023-01-29T16:52:20.074Z,101712.00
2023-01-29T16:54:47.746Z,101702.41
2023-01-29T16:57:17.464Z,101700.66
2023-01-29T16:59:45.243Z,101693.66
2023-01-29T17:02:18.575Z,101693.66
2023-01-29T17:04:48.278Z,101674.47
2023-01-29T17:07:17.016Z,101678.81
2023-01-29T17:09:44.691Z,101680.56
2023-01-29T17:12:17.734Z,101680.59
2023-01-29T17:14:53.585Z,101671.84
2023-01-29T17:17:21.362Z,101668.31
2023-01-29T17:19:50.398Z,101662.22
2023-01-29T17:22:18.083Z,101656.13
2023-01-29T17:24:45.763Z,101667.44
2023-01-29T17:27:14.223Z,101657.84
2023-01-29T17:29:41.902Z,101660.47
2023-01-29T17:32:10.314Z,101663.97
2023-01-29T17:34:38.337Z,101657.84
2023-01-29T17:37:07.361Z,101645.63
2023-01-29T17:39:35.155Z,101643.91
2023-01-29T17:42:02.830Z,101631.66
2023-01-29T17:44:30.493Z,101619.47
2023-01-29T17:46:58.177Z,101599.38
2023-01-29T17:49:26.717Z,101609.84
2023-01-29T17:51:54.613Z,101612.47
2023-01-29T17:54:23.885Z,101608.13
2023-01-29T17:56:51.716Z,101605.47
2023-01-29T17:59:20.305Z,101585.38
2023-01-29T18:01:48.208Z,101576.69
2023-01-29T18:04:15.899Z,101581.94
2023-01-29T18:06:44.201Z,101569.69
2023-01-29T18:09:13.125Z,101565.34
2023-01-29T18:11:42.334Z,101549.63
2023-01-29T18:14:13.893Z,101558.38
2023-01-29T18:16:42.850Z,101547.91
2023-01-29T18:19:14.104Z,101540.94
2023-01-29T18:21:41.818Z,101546.19
2023-01-29T18:24:09.673Z,101544.44
2023-01-29T18:26:37.463Z,101531.34
2023-01-29T18:29:06.576Z,101513.84
2023-01-29T18:31:34.303Z,101512.13
2023-01-29T18:34:01.967Z,101504.25
2023-01-29T18:36:29.727Z,101499.03
2023-01-29T18:38:57.412Z,101511.25
2023-01-29T18:41:25.061Z,101501.66
2023-01-29T18:43:52.929Z,101499.91
2023-01-29T18:46:24.118Z,101500.75
2023-01-29T18:48:51.810Z,101494.66
2023-01-29T18:51:19.469Z,101494.66
2023-01-29T18:53:50.484Z,101493.78
2023-01-29T18:56:18.211Z,101485.03
2023-01-29T18:58:52.297Z,101480.66
2023-01-29T19:01:24.901Z,101478.03
2023-01-29T19:03:52.834Z,101464.94
2023-01-29T19:06:20.494Z,101464.06
2023-01-29T19:08:48.318Z,101461.44
2023-01-29T19:11:15.984Z,101464.06
2023-01-29T19:13:43.692Z,101463.16
2023-01-29T19:16:12.444Z,101463.16
2023-01-29T19:18:41.546Z,101458.81
2023-01-29T19:21:10.203Z,101458.81
2023-01-29T19:23:37.992Z,101447.44
2023-01-29T19:26:05.954Z,101449.16
2023-01-29T19:28:33.676Z,101429.09
2023-01-29T19:31:01.472Z,101430.00
2023-01-29T19:33:29.269Z,101429.09
2023-01-29T19:35:58.542Z,101426.47
2023-01-29T19:38:26.242Z,101422.97
2023-01-29T19:40:55.037Z,101421.25
2023-01-29T19:43:22.807Z,101416.88
2023-01-29T19:45:51.086Z,101427.34
2023-01-29T19:48:21.134Z,101434.34
2023-01-29T19:50:54.832Z,101409.03
2023-01-29T19:53:24.051Z,101421.25
2023-01-29T19:55:58.076Z,101406.41
2023-01-29T19:58:26.030Z,101400.38
2023-01-29T20:00:57.702Z,101399.56
2023-01-29T20:03:25.781Z,101394.34
2023-01-29T20:05:53.456Z,101394.41
2023-01-29T20:08:21.190Z,101382.25
2023-01-29T20:10:50.253Z,101374.41
2023-01-29T20:13:18.015Z,101381.38
2023-01-29T20:15:46.546Z,101383.09
2023-01-29T20:18:14.371Z,101376.94
2023-01-29T20:20:42.935Z,101364.72
2023-01-29T20:23:10.726Z,101359.47
2023-01-29T20:25:38.529Z,101359.41
2023-01-29T20:28:08.504Z,101351.53
2023-01-29T20:30:36.301Z,101338.41
2023-01-29T20:33:04.225Z,101335.78
2023-01-29T20:35:32.031Z,101330.53
2023-01-29T20:37:59.874Z,101327.88
2023-01-29T20:40:27.698Z,101321.75
2023-01-29T20:42:55.444Z,101330.47
2023-01-29T20:45:24.484Z,101318.25
2023-01-29T20:47:52.191Z,101309.56
2023-01-29T20:50:20.403Z,101308.69
2023-01-29T20:52:48.287Z,101306.88
2023-01-29T20:55:16.015Z,101302.53
2023-01-29T20:57:43.816Z,101298.13
2023-01-29T21:00:32.927Z,101303.34
2023-01-29T21:03:00.714Z,101299.91
2023-01-29T21:05:28.417Z,101289.41
2023-01-29T21:07:56.405Z,101285.91
2023-01-29T21:10:25.188Z,101283.28
2023-01-29T21:12:54.522Z,101280.72
2023-01-29T21:15:23.370Z,101270.25
2023-01-29T21:17:52.605Z,101265.03
2023-01-29T21:20:22.533Z,101259.81
2023-01-29T21:22:50.262Z,101250.19
2023-01-29T21:25:20.217Z,101251.09
2023-01-29T21:27:48.000Z,101248.47
2023-01-29T21:30:16.670Z,101246.75
2023-01-29T21:32:44.607Z,101251.09
2023-01-29T21:35:13.840Z,101232.81
2023-01-29T21:37:41.597Z,101226.72
2023-01-29T21:40:10.555Z,101220.56
2023-01-29T21:42:55.632Z,101239.81
2023-01-29T21:45:23.447Z,101211.03
2023-01-29T21:47:51.131Z,101215.41
2023-01-29T21:50:20.468Z,101212.81
2023-01-29T21:52:48.312Z,101203.25
2023-01-29T21:55:16.724Z,101198.84
2023-01-29T21:57:46.720Z,101198.03
2023-01-29T22:00:15.203Z,101199.78
2023-01-29T22:02:43.122Z,101185.84
2023-01-29T22:05:20.074Z,101183.19
2023-01-29T22:07:49.614Z,101167.50
2023-01-29T22:10:18.732Z,101150.00
2023-01-29T22:12:47.050Z,101138.69
2023-01-29T22:15:15.219Z,101139.53
2023-01-29T22:17:42.957Z,101144.75
2023-01-29T22:20:12.550Z,101149.09
2023-01-29T22:22:40.260Z,101137.78
2023-01-29T22:25:10.439Z,101114.19
2023-01-29T22:27:38.499Z,101119.44
2023-01-29T22:30:07.547Z,101115.13
2023-01-29T22:32:35.269Z,101101.13
2023-01-29T22:35:02.950Z,101095.00
2023-01-29T22:37:31.079Z,101078.41
2023-01-29T22:39:58.760Z,101071.44
2023-01-29T22:42:27.884Z,101058.34
2023-01-29T22:44:55.574Z,101039.13
2023-01-29T22:47:23.251Z,101035.63
2023-01-29T22:49:52.323Z,101049.56
2023-01-29T22:52:21.843Z,101042.56
2023-01-29T22:54:51.243Z,101035.63
2023-01-29T22:57:19.285Z,101016.41
2023-01-29T22:59:48.322Z,101003.34
2023-01-29T23:02:16.005Z,100989.38
2023-01-29T23:04:43.743Z,100984.19
2023-01-29T23:07:11.441Z,100977.16
2023-01-29T23:09:39.124Z,100984.13
2023-01-29T23:12:07.862Z,100983.31
2023-01-29T23:14:35.568Z,100967.59
2023-01-29T23:17:04.586Z,100982.38
2023-01-29T23:19:32.253Z,100968.41
2023-01-29T23:21:59.923Z,100978.88
2023-01-29T23:24:27.585Z,100974.56
2023-01-29T23:27:12.694Z,100969.34
2023-01-29T23:29:40.366Z,100968.50
2023-01-29T23:32:09.373Z,100965.03
2023-01-29T23:34:37.045Z,100970.22
2023-01-29T23:37:04.755Z,100965.03
2023-01-29T23:39:32.438Z,100947.59
2023-01-29T23:42:00.226Z,100934.47
2023-01-29T23:44:27.891Z,100938.81
2023-01-29T23:46:55.680Z,100945.00
2023-01-29T23:49:24.744Z,100952.03
2023-01-29T23:51:52.418Z,100948.53
2023-01-29T23:54:20.095Z,100957.28
2023-01-29T23:56:47.777Z,100945.94
2023-01-29T23:59:15.729Z,100934.66
